Gridley, California
Current Conditions -  °F | °C
As of 11:53 AM on Monday 24 Nov 2014 (Local Time) from KOVE Reporting Station
Clear Clear  
Wind Chill: 55°   Ceiling: Unl
Heat Index: 55°   Visibility: 10mi
Dew Point: 43°   Wind: 5mph
Humidity: 64%   Direction: NA
Pressure: 30.39"   Gusts: NA
Location:  39.36°N, 121.69°W
Report Text: KOVE 241953Z AUTO VRB04KT 10SM CLR 13/06 A3039 RMK AO2 SLP292 T01280061
Loading
Personal Weather Stations






























Interactive Weather Map New forecast layout! Learn more

10-Day Weather Forecast

Advertisements
Track Severe Weather on mobile